Time;durP1;ratioP1;P1;durP2;ratioP2;P2;SDS_P1;SDS_P2;PMS_P1;PMS_P2;Temp;Humidity;BMP_temperature;BMP_pressure;BME280_temperature;BME280_humidity;BME280_pressure;Samples;Min_cycle;Max_cycle;Signal;HPM_P1;HPM_P2
2023/06/09 00:01:35;;;;;;;10.57;7.65;;;;;;;;;;5023020;28;20045;-69
2023/06/09 00:04:06;;;;;;;8.40;7.53;;;;;;;;;;5022960;28;20389;-69
2023/06/09 00:06:33;;;;;;;9.30;7.85;;;;;;;;;;5023914;28;20500;-69
2023/06/09 00:08:59;;;;;;;8.35;7.50;;;;;;;;;;5023058;28;20041;-69
2023/06/09 00:11:25;;;;;;;8.63;6.88;;;;;;;;;;5021726;28;20041;-69
2023/06/09 00:13:51;;;;;;;7.53;6.78;;;;;;;;;;5021642;28;20091;-69
2023/06/09 00:16:17;;;;;;;9.13;8.18;;;;;;;;;;5019218;28;20113;-69
2023/06/09 00:18:43;;;;;;;10.25;8.60;;;;;;;;;;5023937;28;20120;-70
2023/06/09 00:21:10;;;;;;;14.30;8.32;;;;;;;;;;5023349;28;20679;-68
2023/06/09 00:23:35;;;;;;;8.73;7.78;;;;;;;;;;5023552;28;20044;-69
2023/06/09 00:26:02;;;;;;;8.95;7.28;;;;;;;;;;5022399;28;20393;-69
2023/06/09 00:28:27;;;;;;;8.85;7.70;;;;;;;;;;5023277;28;20041;-69
2023/06/09 00:30:53;;;;;;;9.27;8.38;;;;;;;;;;5022257;28;20100;-69
2023/06/09 00:33:18;;;;;;;8.85;7.97;;;;;;;;;;5019049;28;20128;-70
2023/06/09 00:35:44;;;;;;;10.30;7.93;;;;;;;;;;5022634;28;20021;-69
2023/06/09 00:38:10;;;;;;;8.95;8.05;;;;;;;;;;5022064;28;20432;-68
2023/06/09 00:40:35;;;;;;;10.27;6.90;;;;;;;;;;5023272;28;20747;-69
2023/06/09 00:43:01;;;;;;;8.90;8.00;;;;;;;;;;5021806;28;20041;-69
2023/06/09 00:45:26;;;;;;;9.10;8.15;;;;;;;;;;5022526;28;20037;-69
2023/06/09 00:47:52;;;;;;;10.65;8.30;;;;;;;;;;5022566;28;20482;-69
2023/06/09 00:50:20;;;;;;;10.35;7.75;;;;;;;;;;5021350;28;20045;-69
2023/06/09 00:52:48;;;;;;;11.73;8.57;;;;;;;;;;5023119;28;20493;-69
2023/06/09 00:55:16;;;;;;;8.73;7.80;;;;;;;;;;5020701;28;20037;-69
2023/06/09 00:57:44;;;;;;;8.60;7.70;;;;;;;;;;5022417;28;20695;-69
2023/06/09 01:00:14;;;;;;;9.00;7.72;;;;;;;;;;5021243;28;20041;-69
2023/06/09 01:02:40;;;;;;;8.38;7.25;;;;;;;;;;5025375;28;20401;-69
2023/06/09 01:05:08;;;;;;;8.13;7.30;;;;;;;;;;5025686;28;20036;-69
2023/06/09 01:08:00;;;;;;;9.25;7.75;;;;;;;;;;5041415;28;20037;-69
2023/06/09 01:10:40;;;;;;;8.38;7.57;;;;;;;;;;5026788;28;20033;-69
2023/06/09 01:13:18;;;;;;;10.45;8.05;;;;;;;;;;5025932;28;20040;-69
2023/06/09 01:15:49;;;;;;;9.02;8.13;;;;;;;;;;5024987;28;20033;-69
2023/06/09 01:18:15;;;;;;;8.75;7.85;;;;;;;;;;5022843;28;20037;-69
2023/06/09 01:20:48;;;;;;;10.40;8.50;;;;;;;;;;5026231;28;20030;-69
2023/06/09 01:23:37;;;;;;;8.13;7.32;;;;;;;;;;5022888;28;20132;-70
2023/06/09 01:26:03;;;;;;;9.97;7.97;;;;;;;;;;5024194;28;20092;-69
2023/06/09 01:28:29;;;;;;;9.90;7.30;;;;;;;;;;5025530;28;20108;-69
2023/06/09 01:30:56;;;;;;;8.05;7.25;;;;;;;;;;5027442;28;20489;-69
2023/06/09 01:33:24;;;;;;;8.10;7.30;;;;;;;;;;5022451;28;20105;-69
2023/06/09 01:35:51;;;;;;;8.27;7.45;;;;;;;;;;5025292;28;20029;-69
2023/06/09 01:38:22;;;;;;;8.07;7.28;;;;;;;;;;5025528;28;20099;-69
2023/06/09 01:40:48;;;;;;;9.10;7.80;;;;;;;;;;5025158;28;20041;-69
2023/06/09 01:43:14;;;;;;;11.40;8.48;;;;;;;;;;5027096;28;20563;-69
2023/06/09 01:45:40;;;;;;;12.52;7.90;;;;;;;;;;5025490;28;20040;-69
2023/06/09 01:48:25;;;;;;;11.65;7.45;;;;;;;;;;5026402;28;20033;-69
2023/06/09 01:51:04;;;;;;;9.60;8.48;;;;;;;;;;5034921;28;20037;-69
2023/06/09 01:53:32;;;;;;;;;;;;;;;;;;5024321;28;20142;-69
2023/06/09 01:56:40;;;;;;;7.70;7.00;;;;;;;;;;5026004;28;19916;-69
2023/06/09 01:59:08;;;;;;;7.72;7.03;;;;;;;;;;5032837;28;20483;-69
2023/06/09 02:01:36;;;;;;;9.90;8.40;;;;;;;;;;5022379;28;20044;-69
2023/06/09 02:04:05;;;;;;;8.98;7.43;;;;;;;;;;5025796;28;20417;-69
2023/06/09 02:06:33;;;;;;;8.43;7.57;;;;;;;;;;5024290;28;20060;-69
2023/06/09 02:09:00;;;;;;;8.77;7.65;;;;;;;;;;5021795;28;20053;-68
2023/06/09 02:11:26;;;;;;;11.50;8.30;;;;;;;;;;5023681;28;20038;-69
2023/06/09 02:13:53;;;;;;;8.65;7.63;;;;;;;;;;5023507;28;20040;-69
2023/06/09 02:16:18;;;;;;;11.75;8.18;;;;;;;;;;5025324;28;20476;-69
2023/06/09 02:18:44;;;;;;;8.35;7.50;;;;;;;;;;5023828;28;20063;-70
2023/06/09 02:21:10;;;;;;;11.27;8.35;;;;;;;;;;5021306;28;20049;-69
2023/06/09 02:23:39;;;;;;;9.70;8.70;;;;;;;;;;5025951;28;20678;-69
2023/06/09 02:26:06;;;;;;;9.88;7.90;;;;;;;;;;5024456;28;20041;-69
2023/06/09 02:28:32;;;;;;;8.15;7.35;;;;;;;;;;5023039;28;20120;-68
2023/06/09 02:30:58;;;;;;;12.23;7.82;;;;;;;;;;5024557;28;20045;-68
2023/06/09 02:33:26;;;;;;;9.55;8.25;;;;;;;;;;5025786;28;20489;-68
2023/06/09 02:35:53;;;;;;;9.13;8.23;;;;;;;;;;5025075;28;20056;-69
2023/06/09 02:38:21;;;;;;;10.02;8.85;;;;;;;;;;5023258;28;20088;-69
2023/06/09 02:40:49;;;;;;;9.25;8.27;;;;;;;;;;5010034;28;20416;-69
2023/06/09 02:43:16;;;;;;;10.00;8.52;;;;;;;;;;5012954;28;20033;-69
2023/06/09 02:45:43;;;;;;;10.15;8.93;;;;;;;;;;5015644;28;20112;-69
2023/06/09 02:48:08;;;;;;;9.13;8.18;;;;;;;;;;5024053;28;20052;-69
2023/06/09 02:50:34;;;;;;;9.43;7.65;;;;;;;;;;5020313;28;20042;-69
2023/06/09 02:53:02;;;;;;;10.10;9.00;;;;;;;;;;5024282;28;20059;-69
2023/06/09 02:55:32;;;;;;;8.70;7.88;;;;;;;;;;5032900;28;20045;-69
2023/06/09 02:57:57;;;;;;;9.43;8.52;;;;;;;;;;5019594;28;20036;-69
2023/06/09 03:00:26;;;;;;;11.73;8.55;;;;;;;;;;5016933;28;20048;-69
2023/06/09 03:02:53;;;;;;;10.80;8.10;;;;;;;;;;5015094;28;20037;-69
2023/06/09 03:05:24;;;;;;;10.38;9.25;;;;;;;;;;5022072;28;20045;-69
2023/06/09 03:07:51;;;;;;;10.68;8.30;;;;;;;;;;5018456;28;20690;-69
2023/06/09 03:10:18;;;;;;;10.63;9.00;;;;;;;;;;5027307;28;20033;-69
2023/06/09 03:12:47;;;;;;;10.20;8.45;;;;;;;;;;4998446;28;20041;-69
2023/06/09 03:15:13;;;;;;;9.43;7.97;;;;;;;;;;5021023;28;20050;-69
2023/06/09 03:17:41;;;;;;;9.95;8.65;;;;;;;;;;5016645;28;20108;-69
2023/06/09 03:20:09;;;;;;;18.65;9.60;;;;;;;;;;5021252;28;20065;-69
2023/06/09 03:22:36;;;;;;;11.32;8.98;;;;;;;;;;5015516;28;20042;-69
2023/06/09 03:25:02;;;;;;;9.50;8.32;;;;;;;;;;5010216;28;20615;-69
2023/06/09 03:27:29;;;;;;;10.77;9.00;;;;;;;;;;5014033;28;20034;-69
2023/06/09 03:29:55;;;;;;;11.13;8.50;;;;;;;;;;5011307;28;20761;-69
2023/06/09 03:32:21;;;;;;;9.98;8.90;;;;;;;;;;5002471;28;20030;-68
2023/06/09 03:34:48;;;;;;;8.73;7.82;;;;;;;;;;5014602;28;20048;-69
2023/06/09 03:37:14;;;;;;;9.65;8.73;;;;;;;;;;5017913;28;20033;-69
2023/06/09 03:39:41;;;;;;;10.60;8.93;;;;;;;;;;5020418;28;20048;-69
2023/06/09 03:42:07;;;;;;;10.15;8.20;;;;;;;;;;5020066;28;20370;-69
2023/06/09 03:44:33;;;;;;;10.77;8.40;;;;;;;;;;5005537;28;20049;-69
2023/06/09 03:46:59;;;;;;;12.80;8.38;;;;;;;;;;5012513;28;20512;-69
2023/06/09 03:49:25;;;;;;;10.27;8.02;;;;;;;;;;5016668;28;20491;-69
2023/06/09 03:51:51;;;;;;;9.38;7.97;;;;;;;;;;5019137;28;20117;-69
2023/06/09 03:54:17;;;;;;;10.88;9.32;;;;;;;;;;5015825;28;20038;-69
2023/06/09 03:56:43;;;;;;;9.27;8.30;;;;;;;;;;5018587;28;20036;-70
2023/06/09 03:59:08;;;;;;;9.20;8.15;;;;;;;;;;5017279;28;20034;-69
2023/06/09 04:01:34;;;;;;;12.10;8.95;;;;;;;;;;5022747;28;20033;-69
2023/06/09 04:04:00;;;;;;;9.88;8.75;;;;;;;;;;5023782;28;20507;-69
2023/06/09 04:06:26;;;;;;;10.25;9.13;;;;;;;;;;5017468;28;20047;-69
2023/06/09 04:08:53;;;;;;;10.25;8.95;;;;;;;;;;5019127;28;20041;-69
2023/06/09 04:11:19;;;;;;;9.90;8.85;;;;;;;;;;5040242;28;20061;-69
2023/06/09 04:13:47;;;;;;;9.75;7.97;;;;;;;;;;5014921;28;20092;-69
2023/06/09 04:16:12;;;;;;;8.65;7.75;;;;;;;;;;5028353;28;20095;-69
2023/06/09 04:18:39;;;;;;;9.27;7.93;;;;;;;;;;5018590;28;20125;-69
2023/06/09 04:21:05;;;;;;;8.50;7.60;;;;;;;;;;5021727;28;20413;-69
2023/06/09 04:23:32;;;;;;;7.47;6.78;;;;;;;;;;5006571;28;20036;-69
2023/06/09 04:26:00;;;;;;;9.68;7.40;;;;;;;;;;5017439;28;20033;-69
2023/06/09 04:28:29;;;;;;;8.27;7.07;;;;;;;;;;5015420;28;20038;-69
2023/06/09 04:30:57;;;;;;;8.10;7.10;;;;;;;;;;5016649;28;20061;-69
2023/06/09 04:33:24;;;;;;;8.90;7.22;;;;;;;;;;5016299;28;20405;-69
2023/06/09 04:35:54;;;;;;;8.27;7.03;;;;;;;;;;5019232;28;20047;-70
2023/06/09 04:38:23;;;;;;;7.43;6.72;;;;;;;;;;5018548;28;20037;-69
2023/06/09 04:40:49;;;;;;;7.15;6.47;;;;;;;;;;5026076;28;20037;-69
2023/06/09 04:43:16;;;;;;;8.98;6.60;;;;;;;;;;5027007;28;20405;-69
2023/06/09 04:45:43;;;;;;;10.73;7.20;;;;;;;;;;5021268;28;20112;-69
2023/06/09 04:48:15;;;;;;;7.50;6.80;;;;;;;;;;5019186;28;20052;-69
2023/06/09 04:50:44;;;;;;;8.32;6.93;;;;;;;;;;5021967;28;20407;-69
2023/06/09 04:53:10;;;;;;;;;;;;;;;;;;5023696;28;20037;-69
2023/06/09 04:55:43;;;;;;;8.20;6.78;;;;;;;;;;5035632;28;19924;-69
2023/06/09 04:58:09;;;;;;;7.82;7.13;;;;;;;;;;5025634;28;20643;-69
2023/06/09 05:00:35;;;;;;;8.07;6.90;;;;;;;;;;5023209;28;20065;-69
2023/06/09 05:03:02;;;;;;;8.95;7.68;;;;;;;;;;5023639;28;20052;-69
2023/06/09 05:05:28;;;;;;;8.45;6.63;;;;;;;;;;5026623;28;20037;-69
2023/06/09 05:07:55;;;;;;;6.90;6.28;;;;;;;;;;5021626;28;20033;-69
2023/06/09 05:10:22;;;;;;;8.10;6.03;;;;;;;;;;5025629;28;20045;-69
2023/06/09 05:12:49;;;;;;;7.43;6.30;;;;;;;;;;5023556;28;20034;-69
2023/06/09 05:15:16;;;;;;;7.97;6.13;;;;;;;;;;5023762;28;20128;-69
2023/06/09 05:17:43;;;;;;;8.40;6.30;;;;;;;;;;5042967;28;20037;-69
2023/06/09 05:20:10;;;;;;;7.03;6.30;;;;;;;;;;5022734;28;20539;-69
2023/06/09 05:22:36;;;;;;;7.03;6.32;;;;;;;;;;5024814;28;20060;-69
2023/06/09 05:25:03;;;;;;;7.28;6.00;;;;;;;;;;5020850;28;20048;-69
2023/06/09 05:27:29;;;;;;;9.93;6.68;;;;;;;;;;5024777;28;20044;-70
2023/06/09 05:29:55;;;;;;;8.05;6.40;;;;;;;;;;5018759;28;20036;-70
2023/06/09 05:32:21;;;;;;;6.20;5.60;;;;;;;;;;5025464;28;20040;-69
2023/06/09 05:34:47;;;;;;;7.72;6.93;;;;;;;;;;5004764;28;20038;-69
2023/06/09 05:37:15;;;;;;;7.50;6.28;;;;;;;;;;5023885;28;20037;-72
2023/06/09 05:39:40;;;;;;;10.30;6.43;;;;;;;;;;5024541;28;20036;-69
2023/06/09 05:42:08;;;;;;;8.43;6.95;;;;;;;;;;5025533;28;20040;-69
2023/06/09 05:44:33;;;;;;;7.20;6.50;;;;;;;;;;5025149;28;20075;-70
2023/06/09 05:46:59;;;;;;;7.00;6.32;;;;;;;;;;5024041;28;20070;-69
2023/06/09 05:49:24;;;;;;;7.38;6.65;;;;;;;;;;5023216;28;20037;-69
2023/06/09 05:51:50;;;;;;;7.35;6.40;;;;;;;;;;5026811;28;20108;-70
2023/06/09 05:54:16;;;;;;;7.18;6.47;;;;;;;;;;5025865;28;20033;-69
2023/06/09 05:56:44;;;;;;;6.68;5.93;;;;;;;;;;5023829;28;20036;-70
2023/06/09 05:59:12;;;;;;;8.07;6.05;;;;;;;;;;5025638;28;20060;-70
2023/06/09 06:01:38;;;;;;;6.05;5.47;;;;;;;;;;5025028;28;20033;-70
2023/06/09 06:04:03;;;;;;;6.20;5.60;;;;;;;;;;5023892;28;20043;-70
2023/06/09 06:06:30;;;;;;;7.20;6.05;;;;;;;;;;5022907;28;20044;-70
2023/06/09 06:08:56;;;;;;;6.35;5.40;;;;;;;;;;5024692;28;20445;-70
2023/06/09 06:11:21;;;;;;;5.50;5.00;;;;;;;;;;5023629;28;20052;-70
2023/06/09 06:13:47;;;;;;;6.88;6.15;;;;;;;;;;5022239;28;20397;-70
2023/06/09 06:16:12;;;;;;;7.88;5.65;;;;;;;;;;5014824;28;20041;-70
2023/06/09 06:18:38;;;;;;;6.32;5.72;;;;;;;;;;5018685;28;20078;-70
2023/06/09 06:21:04;;;;;;;5.82;4.80;;;;;;;;;;5011568;28;20091;-70
2023/06/09 06:23:29;;;;;;;6.07;5.07;;;;;;;;;;5024981;28;20045;-69
2023/06/09 06:25:55;;;;;;;5.85;5.15;;;;;;;;;;5023029;28;20037;-70
2023/06/09 06:28:21;;;;;;;7.47;5.43;;;;;;;;;;5020527;28;20040;-70
2023/06/09 06:30:47;;;;;;;5.95;5.45;;;;;;;;;;5018788;28;20072;-70
2023/06/09 06:33:13;;;;;;;6.72;5.13;;;;;;;;;;5020047;28;20132;-70
2023/06/09 06:35:39;;;;;;;5.78;4.53;;;;;;;;;;5020654;28;20071;-69
2023/06/09 06:38:05;;;;;;;5.18;4.70;;;;;;;;;;5022068;28;20041;-70
2023/06/09 06:40:31;;;;;;;5.05;4.55;;;;;;;;;;5023075;28;20103;-70
2023/06/09 06:42:56;;;;;;;6.65;5.28;;;;;;;;;;5022275;28;20045;-70
2023/06/09 06:45:43;;;;;;;5.15;4.75;;;;;;;;;;5018727;28;20507;-70
2023/06/09 06:48:09;;;;;;;5.95;4.85;;;;;;;;;;5023896;28;20064;-70
2023/06/09 06:50:34;;;;;;;6.25;4.70;;;;;;;;;;5025163;28;20565;-70
2023/06/09 06:53:00;;;;;;;5.70;5.10;;;;;;;;;;5022787;28;20041;-70
2023/06/09 06:55:26;;;;;;;5.60;4.72;;;;;;;;;;5025131;28;20037;-70
2023/06/09 06:57:52;;;;;;;5.25;4.72;;;;;;;;;;5017547;28;20038;-71
2023/06/09 07:00:18;;;;;;;4.90;4.40;;;;;;;;;;5022982;28;20037;-70
2023/06/09 07:02:47;;;;;;;5.28;4.45;;;;;;;;;;5021797;28;20038;-70
2023/06/09 07:05:13;;;;;;;4.97;4.47;;;;;;;;;;5022397;28;20175;-70
2023/06/09 07:07:39;;;;;;;4.97;4.55;;;;;;;;;;5024638;28;20505;-70
2023/06/09 07:10:07;;;;;;;5.40;4.40;;;;;;;;;;5023653;28;20168;-70
2023/06/09 07:12:33;;;;;;;4.93;4.30;;;;;;;;;;5025294;28;20029;-70
2023/06/09 07:14:59;;;;;;;4.82;4.40;;;;;;;;;;5025013;28;20288;-70
2023/06/09 07:17:24;;;;;;;4.57;4.10;;;;;;;;;;5024640;28;20022;-71
2023/06/09 07:19:50;;;;;;;4.28;3.88;;;;;;;;;;5023912;28;20490;-70
2023/06/09 07:22:15;;;;;;;4.28;3.72;;;;;;;;;;5024511;28;20049;-70
2023/06/09 07:24:42;;;;;;;3.95;3.55;;;;;;;;;;5024680;28;20033;-70
2023/06/09 07:27:08;;;;;;;3.95;3.65;;;;;;;;;;5019935;28;20374;-70
2023/06/09 07:29:35;;;;;;;4.10;3.80;;;;;;;;;;5011195;28;20048;-70
2023/06/09 07:32:04;;;;;;;4.28;3.80;;;;;;;;;;5021109;28;20025;-70
2023/06/09 07:34:31;;;;;;;4.07;3.78;;;;;;;;;;5024444;28;20441;-70
2023/06/09 07:36:59;;;;;;;4.22;3.92;;;;;;;;;;5020882;28;20060;-70
2023/06/09 07:39:27;;;;;;;5.95;4.30;;;;;;;;;;5021282;28;20045;-70
2023/06/09 07:41:53;;;;;;;4.03;3.63;;;;;;;;;;5025402;28;20034;-71
2023/06/09 07:44:18;;;;;;;4.35;3.95;;;;;;;;;;5025066;28;20049;-70
2023/06/09 07:46:44;;;;;;;5.85;3.70;;;;;;;;;;5022095;28;20044;-70
2023/06/09 07:49:10;;;;;;;4.00;3.70;;;;;;;;;;5017160;28;20048;-71
2023/06/09 07:51:37;;;;;;;4.07;3.70;;;;;;;;;;5024812;28;20100;-71
2023/06/09 07:54:05;;;;;;;3.50;3.20;;;;;;;;;;5016847;28;20037;-70
2023/06/09 07:56:31;;;;;;;4.28;3.40;;;;;;;;;;5023693;28;20178;-71
2023/06/09 07:58:58;;;;;;;3.50;3.20;;;;;;;;;;5008881;28;20034;-70
2023/06/09 08:01:24;;;;;;;3.72;3.42;;;;;;;;;;5024354;28;20021;-70
2023/06/09 08:03:50;;;;;;;3.97;3.33;;;;;;;;;;5021680;28;20037;-70
2023/06/09 08:06:16;;;;;;;3.70;3.40;;;;;;;;;;5012220;28;20037;-71
2023/06/09 08:08:42;;;;;;;4.50;3.60;;;;;;;;;;5023225;28;20029;-70
2023/06/09 08:11:07;;;;;;;3.75;3.45;;;;;;;;;;5026065;28;20040;-70
2023/06/09 08:13:33;;;;;;;3.28;3.00;;;;;;;;;;5024068;28;20033;-70
2023/06/09 08:15:58;;;;;;;3.28;2.97;;;;;;;;;;5022116;28;20404;-70
2023/06/09 08:18:24;;;;;;;3.33;3.13;;;;;;;;;;5025222;28;20041;-71
2023/06/09 08:20:50;;;;;;;3.90;3.25;;;;;;;;;;5026133;28;20255;-71
2023/06/09 08:23:16;;;;;;;3.30;3.10;;;;;;;;;;5027975;28;20636;-70
2023/06/09 08:25:41;;;;;;;3.75;3.45;;;;;;;;;;5026260;28;20037;-70
2023/06/09 08:28:07;;;;;;;3.42;3.17;;;;;;;;;;5026000;28;20033;-71
2023/06/09 08:30:32;;;;;;;3.50;3.20;;;;;;;;;;5022464;28;20468;-71
2023/06/09 08:32:58;;;;;;;3.25;3.05;;;;;;;;;;5021746;28;20033;-70
2023/06/09 08:35:24;;;;;;;5.03;3.28;;;;;;;;;;5024028;28;20033;-71
2023/06/09 08:37:50;;;;;;;2.92;2.72;;;;;;;;;;5021478;28;20068;-70
2023/06/09 08:40:16;;;;;;;3.25;3.05;;;;;;;;;;5023335;28;20041;-70
2023/06/09 08:42:44;;;;;;;3.40;3.05;;;;;;;;;;5026905;28;20066;-72
2023/06/09 08:45:10;;;;;;;3.33;3.03;;;;;;;;;;5028058;28;20056;-71
2023/06/09 08:47:37;;;;;;;3.00;2.80;;;;;;;;;;5027188;28;20041;-71
2023/06/09 08:50:03;;;;;;;3.83;3.20;;;;;;;;;;5028625;28;20370;-70
2023/06/09 08:52:30;;;;;;;3.53;3.22;;;;;;;;;;5030118;28;20025;-71
2023/06/09 08:54:59;;;;;;;3.60;3.30;;;;;;;;;;5027943;28;20040;-70
2023/06/09 08:57:25;;;;;;;3.80;3.38;;;;;;;;;;5036278;28;20037;-70
2023/06/09 08:59:52;;;;;;;3.13;2.92;;;;;;;;;;5018396;28;20041;-71
2023/06/09 09:02:18;;;;;;;3.58;3.28;;;;;;;;;;5024417;28;20124;-71
2023/06/09 09:04:45;;;;;;;3.95;3.50;;;;;;;;;;5025774;28;20160;-70
2023/06/09 09:07:14;;;;;;;3.33;3.13;;;;;;;;;;5026944;28;20026;-71
2023/06/09 09:09:40;;;;;;;3.60;3.30;;;;;;;;;;5026736;28;20040;-71
2023/06/09 09:12:12;;;;;;;3.38;3.13;;;;;;;;;;5022967;28;20029;-71
2023/06/09 09:14:40;;;;;;;3.50;3.20;;;;;;;;;;5026646;28;20060;-71
2023/06/09 09:17:10;;;;;;;3.65;3.33;;;;;;;;;;5027040;28;20064;-71
2023/06/09 09:19:36;;;;;;;3.50;3.20;;;;;;;;;;5026326;28;20033;-71
2023/06/09 09:22:07;;;;;;;4.40;2.92;;;;;;;;;;5024165;28;20429;-70
2023/06/09 09:24:34;;;;;;;3.58;3.38;;;;;;;;;;5023907;28;20119;-71
2023/06/09 09:26:59;;;;;;;3.58;3.28;;;;;;;;;;5017156;28;20048;-70
2023/06/09 09:29:27;;;;;;;3.33;3.03;;;;;;;;;;5025748;28;20037;-71
2023/06/09 09:31:58;;;;;;;3.53;3.22;;;;;;;;;;5018101;28;20062;-70
2023/06/09 09:34:26;;;;;;;3.28;3.08;;;;;;;;;;5014544;28;20520;-71
2023/06/09 09:36:55;;;;;;;3.65;3.35;;;;;;;;;;5020900;28;20076;-71
2023/06/09 09:39:21;;;;;;;3.67;3.38;;;;;;;;;;5016889;28;20029;-71
2023/06/09 09:42:08;;;;;;;3.20;3.00;;;;;;;;;;5022271;28;20033;-71
2023/06/09 09:44:39;;;;;;;3.20;2.95;;;;;;;;;;5018859;28;20057;-71
2023/06/09 09:47:12;;;;;;;3.33;3.10;;;;;;;;;;5018227;28;20046;-70
2023/06/09 09:49:58;;;;;;;3.35;3.08;;;;;;;;;;5023536;28;20064;-70
2023/06/09 09:52:29;;;;;;;3.58;2.95;;;;;;;;;;5024659;28;20544;-70
2023/06/09 09:55:00;;;;;;;3.53;3.22;;;;;;;;;;5023015;28;20444;-72
2023/06/09 09:57:31;;;;;;;3.67;3.38;;;;;;;;;;5024544;28;20041;-71
2023/06/09 10:00:07;;;;;;;3.28;2.72;;;;;;;;;;5023942;28;20037;-73
2023/06/09 10:02:45;;;;;;;3.15;2.90;;;;;;;;;;5025060;28;20033;-71
2023/06/09 10:05:14;;;;;;;3.47;3.28;;;;;;;;;;5022406;28;20065;-70
2023/06/09 10:07:45;;;;;;;3.55;3.25;;;;;;;;;;5025641;28;20642;-71
2023/06/09 10:10:12;;;;;;;3.15;2.95;;;;;;;;;;5025731;28;20643;-70
2023/06/09 10:12:38;;;;;;;3.45;3.15;;;;;;;;;;5026808;28;20123;-71
2023/06/09 10:15:08;;;;;;;3.30;3.10;;;;;;;;;;5024270;28;20067;-71
2023/06/09 10:17:35;;;;;;;;;;;;;;;;;;5027410;28;20045;-70
2023/06/09 10:20:03;;;;;;;3.33;3.03;;;;;;;;;;5026660;28;20011;-71
2023/06/09 10:22:29;;;;;;;3.37;3.17;;;;;;;;;;5024708;28;20033;-71
2023/06/09 10:24:58;;;;;;;2.90;2.70;;;;;;;;;;5022826;28;20593;-70
2023/06/09 10:27:24;;;;;;;3.28;3.08;;;;;;;;;;5020642;28;20041;-71
2023/06/09 10:29:51;;;;;;;3.17;2.90;;;;;;;;;;5023113;28;20249;-71
2023/06/09 10:32:23;;;;;;;3.10;2.90;;;;;;;;;;5022762;28;20048;-72
2023/06/09 10:34:50;;;;;;;3.00;2.80;;;;;;;;;;5015741;28;20038;-71
2023/06/09 10:37:30;;;;;;;2.83;2.63;;;;;;;;;;5021842;28;20034;-71
2023/06/09 10:40:03;;;;;;;3.10;2.90;;;;;;;;;;5026588;28;20853;-69
2023/06/09 10:42:42;;;;;;;3.75;2.92;;;;;;;;;;5025538;28;20103;-70
2023/06/09 10:45:18;;;;;;;3.35;3.05;;;;;;;;;;5019203;28;20124;-69
2023/06/09 10:47:50;;;;;;;3.05;2.85;;;;;;;;;;5023234;28;20041;-69
2023/06/09 10:50:22;;;;;;;2.90;2.58;;;;;;;;;;5021444;28;20037;-69
2023/06/09 10:52:58;;;;;;;4.45;2.83;;;;;;;;;;5021801;28;20033;-70
2023/06/09 10:55:27;;;;;;;3.17;2.70;;;;;;;;;;5021484;28;20083;-70
2023/06/09 10:57:54;;;;;;;3.00;2.80;;;;;;;;;;5022705;28;20037;-68
2023/06/09 11:00:21;;;;;;;2.92;2.70;;;;;;;;;;5020604;28;20036;-68
2023/06/09 11:03:06;;;;;;;3.20;2.80;;;;;;;;;;5019340;28;20037;-68
2023/06/09 11:05:41;;;;;;;3.28;2.97;;;;;;;;;;5022964;28;20037;-68
2023/06/09 11:08:07;;;;;;;3.35;2.92;;;;;;;;;;5012719;28;20112;-68
2023/06/09 11:10:37;;;;;;;2.80;2.60;;;;;;;;;;5016588;28;20107;-68
2023/06/09 11:13:39;;;;;;;2.75;2.55;;;;;;;;;;5010118;28;20049;-67
2023/06/09 11:16:05;;;;;;;2.90;2.70;;;;;;;;;;5021149;28;20036;-68
2023/06/09 11:18:31;;;;;;;3.08;2.88;;;;;;;;;;5018459;28;20580;-68
2023/06/09 11:21:18;;;;;;;3.33;2.90;;;;;;;;;;5019428;28;20060;-68
2023/06/09 11:24:03;;;;;;;4.85;2.90;;;;;;;;;;5018346;28;20048;-69
2023/06/09 11:26:30;;;;;;;3.28;3.08;;;;;;;;;;5016206;28;20681;-69
2023/06/09 11:28:56;;;;;;;3.45;3.20;;;;;;;;;;5015534;28;20087;-69
2023/06/09 11:31:22;;;;;;;3.20;3.00;;;;;;;;;;5018541;28;20408;-68
2023/06/09 11:33:50;;;;;;;3.10;2.90;;;;;;;;;;5016914;28;20029;-68
2023/06/09 11:36:27;;;;;;;4.88;3.15;;;;;;;;;;5016797;28;20037;-68
2023/06/09 11:38:58;;;;;;;3.88;3.30;;;;;;;;;;5019758;28;20030;-68
2023/06/09 11:41:25;;;;;;;4.63;3.90;;;;;;;;;;5019224;28;20033;-67
2023/06/09 11:43:56;;;;;;;3.47;3.28;;;;;;;;;;5018987;28;20038;-68
2023/06/09 11:46:22;;;;;;;3.42;3.22;;;;;;;;;;5017516;28;20117;-67
2023/06/09 11:49:01;;;;;;;3.50;3.30;;;;;;;;;;5020010;28;20037;-68
2023/06/09 11:51:27;;;;;;;3.75;3.45;;;;;;;;;;5019801;28;20045;-67
2023/06/09 11:53:52;;;;;;;3.45;3.25;;;;;;;;;;5019162;28;20040;-67
2023/06/09 11:56:18;;;;;;;3.70;3.40;;;;;;;;;;5019456;28;20030;-68
2023/06/09 11:58:44;;;;;;;3.60;3.40;;;;;;;;;;5019570;28;20044;-68
2023/06/09 12:01:10;;;;;;;3.65;3.45;;;;;;;;;;5020316;28;20037;-68
2023/06/09 12:03:38;;;;;;;3.67;3.38;;;;;;;;;;5018169;28;20037;-68
2023/06/09 12:06:03;;;;;;;3.50;3.30;;;;;;;;;;5019474;28;20042;-67
2023/06/09 12:08:29;;;;;;;4.00;3.70;;;;;;;;;;5018193;28;20455;-67
2023/06/09 12:10:55;;;;;;;3.83;3.50;;;;;;;;;;5016693;28;20688;-67
2023/06/09 12:13:20;;;;;;;3.20;3.00;;;;;;;;;;5017152;28;20036;-67
2023/06/09 12:15:53;;;;;;;3.78;3.53;;;;;;;;;;5017631;28;20465;-68
2023/06/09 12:18:18;;;;;;;3.35;3.15;;;;;;;;;;5019038;28;20066;-69
2023/06/09 12:20:46;;;;;;;3.60;3.40;;;;;;;;;;5012863;28;20038;-68
2023/06/09 12:23:14;;;;;;;3.20;3.00;;;;;;;;;;5015619;28;20045;-68
2023/06/09 12:25:48;;;;;;;3.80;3.50;;;;;;;;;;5013596;28;20052;-68
2023/06/09 12:28:19;;;;;;;3.40;3.20;;;;;;;;;;5017811;28;20069;-68
2023/06/09 12:30:50;;;;;;;3.50;3.30;;;;;;;;;;5013654;28;20728;-68
2023/06/09 12:33:18;;;;;;;3.90;3.60;;;;;;;;;;5011653;28;20484;-68
2023/06/09 12:35:45;;;;;;;3.50;3.30;;;;;;;;;;5019467;28;20037;-68
2023/06/09 12:38:13;;;;;;;3.90;3.70;;;;;;;;;;5019147;28;20131;-69
2023/06/09 12:41:06;;;;;;;3.60;3.40;;;;;;;;;;5019834;28;20037;-68
2023/06/09 12:43:59;;;;;;;3.47;3.28;;;;;;;;;;5010744;28;20379;-68
2023/06/09 12:46:33;;;;;;;3.85;3.55;;;;;;;;;;5019835;28;20037;-68
2023/06/09 12:49:02;;;;;;;4.07;3.78;;;;;;;;;;5015445;28;20041;-68
2023/06/09 12:51:29;;;;;;;3.97;3.67;;;;;;;;;;5019048;28;20522;-68
2023/06/09 12:53:55;;;;;;;5.68;3.45;;;;;;;;;;5014141;28;20021;-68
2023/06/09 12:56:22;;;;;;;3.60;3.40;;;;;;;;;;5019128;28;20448;-68
2023/06/09 12:58:47;;;;;;;4.55;3.40;;;;;;;;;;5021946;28;20077;-68
2023/06/09 13:01:14;;;;;;;3.90;3.70;;;;;;;;;;5020256;28;20061;-68
2023/06/09 13:03:41;;;;;;;3.80;3.60;;;;;;;;;;5021975;28;20038;-69
2023/06/09 13:06:07;;;;;;;4.00;3.60;;;;;;;;;;5022027;28;20041;-68
2023/06/09 13:08:34;;;;;;;3.90;3.60;;;;;;;;;;5022849;28;20172;-68
2023/06/09 13:10:59;;;;;;;3.97;3.67;;;;;;;;;;5021688;28;20033;-68
2023/06/09 13:13:25;;;;;;;4.05;3.75;;;;;;;;;;5021815;28;20037;-68
2023/06/09 13:15:51;;;;;;;3.60;3.40;;;;;;;;;;5023261;28;20042;-68
2023/06/09 13:18:16;;;;;;;3.50;3.30;;;;;;;;;;5022224;28;20048;-68
2023/06/09 13:20:42;;;;;;;3.50;3.30;;;;;;;;;;5022441;28;20033;-68
2023/06/09 13:23:08;;;;;;;3.58;3.38;;;;;;;;;;5019146;28;20481;-68
2023/06/09 13:25:43;;;;;;;3.60;3.40;;;;;;;;;;5018946;28;20896;-68
2023/06/09 13:28:10;;;;;;;4.28;3.95;;;;;;;;;;5020220;28;20037;-68
2023/06/09 13:30:37;;;;;;;3.85;3.58;;;;;;;;;;5022206;28;20040;-68
2023/06/09 13:33:03;;;;;;;3.55;3.33;;;;;;;;;;5019983;28;20083;-68
2023/06/09 13:35:30;;;;;;;4.30;3.85;;;;;;;;;;5011857;28;20033;-68
2023/06/09 13:37:57;;;;;;;3.55;3.35;;;;;;;;;;5021672;28;20517;-70
2023/06/09 13:40:23;;;;;;;4.03;3.72;;;;;;;;;;5014480;28;20037;-68
2023/06/09 13:42:52;;;;;;;3.75;3.50;;;;;;;;;;5013965;28;20048;-68
2023/06/09 13:45:27;;;;;;;4.53;3.70;;;;;;;;;;5011743;28;20362;-68
2023/06/09 13:47:55;;;;;;;4.00;3.70;;;;;;;;;;5021377;28;20600;-68
2023/06/09 13:50:22;;;;;;;3.63;3.33;;;;;;;;;;5022222;28;20125;-67
2023/06/09 13:52:47;;;;;;;3.92;3.63;;;;;;;;;;5019832;28;20032;-68
2023/06/09 13:55:13;;;;;;;4.97;3.50;;;;;;;;;;5020196;28;20037;-67
2023/06/09 13:57:40;;;;;;;3.60;3.40;;;;;;;;;;5021575;28;20124;-68
2023/06/09 14:00:09;;;;;;;3.80;3.60;;;;;;;;;;5017894;28;20092;-68
2023/06/09 14:02:35;;;;;;;4.10;3.80;;;;;;;;;;5006817;28;20033;-68
2023/06/09 14:05:01;;;;;;;4.20;3.90;;;;;;;;;;5021251;28;20756;-68
2023/06/09 14:07:27;;;;;;;3.63;3.42;;;;;;;;;;5021932;28;20037;-68
2023/06/09 14:09:55;;;;;;;5.43;3.58;;;;;;;;;;5019114;28;20036;-69
2023/06/09 14:12:21;;;;;;;4.07;3.78;;;;;;;;;;5021455;28;20826;-68
2023/06/09 14:14:47;;;;;;;3.95;3.65;;;;;;;;;;5021025;28;20441;-69
2023/06/09 14:17:12;;;;;;;3.40;3.20;;;;;;;;;;5023199;28;20041;-69
2023/06/09 14:19:39;;;;;;;3.30;3.10;;;;;;;;;;5022844;28;20103;-68
2023/06/09 14:22:05;;;;;;;4.50;3.80;;;;;;;;;;5022753;28;20613;-68
2023/06/09 14:24:31;;;;;;;4.30;3.97;;;;;;;;;;5021071;28;20060;-68
2023/06/09 14:26:57;;;;;;;3.95;3.65;;;;;;;;;;5023241;28;20052;-68
2023/06/09 14:29:23;;;;;;;3.92;3.63;;;;;;;;;;5022743;28;20029;-68
2023/06/09 14:31:51;;;;;;;4.00;3.70;;;;;;;;;;5018603;28;20099;-68
2023/06/09 14:34:17;;;;;;;3.53;3.33;;;;;;;;;;5022865;28;20816;-69
2023/06/09 14:36:43;;;;;;;3.95;3.65;;;;;;;;;;5023009;28;20784;-69
2023/06/09 14:39:09;;;;;;;3.72;3.50;;;;;;;;;;5021213;28;20040;-68
2023/06/09 14:41:36;;;;;;;4.13;3.78;;;;;;;;;;5020824;28;20045;-68
2023/06/09 14:44:02;;;;;;;3.88;3.55;;;;;;;;;;5022119;28;20041;-69
2023/06/09 14:46:28;;;;;;;4.10;3.80;;;;;;;;;;5024397;28;20040;-68
2023/06/09 14:48:53;;;;;;;3.92;3.63;;;;;;;;;;5025946;28;20556;-68